createdAt,value
2019-01-19T00:02:35.299Z,44.07
2019-01-19T00:05:16.872Z,44.13
2019-01-19T00:08:00.960Z,44.24
2019-01-19T00:10:37.683Z,44.07
2019-01-19T00:13:11.901Z,44.19
2019-01-19T00:15:58.942Z,44.23
2019-01-19T00:18:31.343Z,44.23
2019-01-19T00:21:27.819Z,44.08
2019-01-19T00:24:05.243Z,44.07
2019-01-19T00:26:37.975Z,44.02
2019-01-19T00:29:08.694Z,43.86
2019-01-19T00:31:46.054Z,44.00
2019-01-19T00:34:34.233Z,44.07
2019-01-19T00:37:11.579Z,44.07
2019-01-19T00:39:58.595Z,44.12
2019-01-19T00:42:35.853Z,44.07
2019-01-19T00:45:41.099Z,44.14
2019-01-19T00:48:27.143Z,44.20
2019-01-19T00:51:20.443Z,44.19
2019-01-19T00:53:54.860Z,44.12
2019-01-19T00:56:39.199Z,44.18
2019-01-19T00:59:09.111Z,44.15
2019-01-19T01:01:54.606Z,44.02
2019-01-19T01:04:29.958Z,44.07
2019-01-19T01:07:11.811Z,43.97
2019-01-19T01:10:17.199Z,44.07
2019-01-19T01:12:55.354Z,43.83
2019-01-19T01:15:41.158Z,44.06
2019-01-19T01:18:15.656Z,44.13
2019-01-19T01:21:02.759Z,43.95
2019-01-19T01:23:49.760Z,44.16
2019-01-19T01:26:49.218Z,44.07
2019-01-19T01:29:45.295Z,44.16
2019-01-19T01:32:32.566Z,44.19
2019-01-19T01:35:09.299Z,44.14
2019-01-19T01:37:41.781Z,44.11
2019-01-19T01:40:20.203Z,44.10
2019-01-19T01:43:13.430Z,44.08
2019-01-19T01:45:58.044Z,43.97
2019-01-19T01:48:50.933Z,43.87
2019-01-19T01:51:44.092Z,43.66
2019-01-19T01:54:27.390Z,43.69
2019-01-19T01:56:56.127Z,43.40
2019-01-19T01:59:32.998Z,43.39
2019-01-19T02:02:10.716Z,43.31
2019-01-19T02:05:00.835Z,43.39
2019-01-19T02:07:50.050Z,43.45
2019-01-19T02:10:33.311Z,43.56
2019-01-19T02:13:11.778Z,43.64
2019-01-19T02:15:50.382Z,43.89
2019-01-19T02:18:36.211Z,43.89
2019-01-19T02:21:09.907Z,43.82
2019-01-19T02:24:00.154Z,43.93
2019-01-19T02:26:32.691Z,43.95
2019-01-19T02:29:06.751Z,43.77
2019-01-19T02:31:48.810Z,44.00
2019-01-19T02:34:30.278Z,43.78
2019-01-19T02:37:26.568Z,43.94
2019-01-19T02:40:14.058Z,43.81
2019-01-19T02:43:04.227Z,43.99
2019-01-19T02:45:54.659Z,44.02
2019-01-19T02:48:53.656Z,43.94
2019-01-19T02:51:28.719Z,43.99
2019-01-19T02:54:18.869Z,43.96
2019-01-19T02:57:09.287Z,43.89
2019-01-19T02:59:50.138Z,43.85
2019-01-19T03:02:22.212Z,43.83
2019-01-19T03:04:58.496Z,43.78
2019-01-19T03:07:29.451Z,43.73
2019-01-19T03:10:02.859Z,43.69
2019-01-19T03:12:49.867Z,43.74
2019-01-19T03:15:31.536Z,43.65
2019-01-19T03:18:08.750Z,43.73
2019-01-19T03:21:01.895Z,43.66
2019-01-19T03:23:49.147Z,43.67
2019-01-19T03:26:30.436Z,43.67
2019-01-19T03:29:04.681Z,43.64
2019-01-19T03:32:01.296Z,43.66
2019-01-19T03:34:33.671Z,43.80
2019-01-19T03:37:14.578Z,43.78
2019-01-19T03:40:00.675Z,43.71
2019-01-19T03:42:47.687Z,43.86
2019-01-19T03:45:32.911Z,43.73
2019-01-19T03:48:19.952Z,43.75
2019-01-19T03:51:04.216Z,43.81
2019-01-19T03:53:45.279Z,43.71
2019-01-19T03:56:20.701Z,43.58
2019-01-19T03:58:51.187Z,43.71
2019-01-19T04:01:41.418Z,43.80
2019-01-19T04:04:13.555Z,43.34
2019-01-19T04:06:57.959Z,43.75
2019-01-19T04:09:42.655Z,43.41
2019-01-19T04:12:17.679Z,43.58
2019-01-19T04:14:50.171Z,43.45
2019-01-19T04:17:26.267Z,43.86
2019-01-19T04:20:16.364Z,43.67
2019-01-19T04:22:55.327Z,43.83
2019-01-19T04:25:28.190Z,43.79
2019-01-19T04:27:56.195Z,43.74
2019-01-19T04:30:24.395Z,43.75
2019-01-19T04:32:52.832Z,43.75
2019-01-19T04:35:20.575Z,43.46
2019-01-19T04:37:48.295Z,43.55
2019-01-19T04:40:16.045Z,43.54
2019-01-19T04:42:45.803Z,43.38
2019-01-19T04:45:13.774Z,43.50
2019-01-19T04:47:41.490Z,43.43
2019-01-19T04:50:09.792Z,43.42
2019-01-19T04:52:37.646Z,43.48
2019-01-19T04:55:05.375Z,43.58
2019-01-19T04:57:33.219Z,43.65
2019-01-19T05:00:00.928Z,43.19
2019-01-19T05:02:29.288Z,43.43
2019-01-19T05:04:57.070Z,43.56
2019-01-19T05:07:24.791Z,43.50
2019-01-19T05:09:53.027Z,43.42
2019-01-19T05:12:21.023Z,43.43
2019-01-19T05:14:48.732Z,43.08
2019-01-19T05:17:16.478Z,43.27
2019-01-19T05:19:44.514Z,43.35
2019-01-19T05:22:12.285Z,43.42
2019-01-19T05:24:40.051Z,43.44
2019-01-19T05:27:08.308Z,43.46
2019-01-19T05:29:36.811Z,43.36
2019-01-19T05:32:04.931Z,43.50
2019-01-19T05:34:32.956Z,43.35
2019-01-19T05:37:00.714Z,43.60
2019-01-19T05:39:28.683Z,43.36
2019-01-19T05:41:56.922Z,43.01
2019-01-19T05:44:24.867Z,43.43
2019-01-19T05:46:52.577Z,43.18
2019-01-19T05:49:20.551Z,43.08
2019-01-19T05:51:48.521Z,43.39
2019-01-19T05:54:16.591Z,43.40
2019-01-19T05:56:44.910Z,43.44
2019-01-19T05:59:12.615Z,43.44
2019-01-19T06:01:40.341Z,43.38
2019-01-19T06:04:08.385Z,43.41
2019-01-19T06:06:36.444Z,43.11
2019-01-19T06:09:06.352Z,42.57
2019-01-19T06:11:34.179Z,43.22
2019-01-19T06:14:02.212Z,43.22
2019-01-19T06:16:30.476Z,42.98
2019-01-19T06:18:58.687Z,43.07
2019-01-19T06:21:30.156Z,43.25
2019-01-19T06:23:57.870Z,43.13
2019-01-19T06:26:25.825Z,43.39
2019-01-19T06:28:53.914Z,43.23
2019-01-19T06:31:21.899Z,43.35
2019-01-19T06:33:50.128Z,43.32
2019-01-19T06:36:18.364Z,42.92
2019-01-19T06:38:46.088Z,43.14
2019-01-19T06:41:14.071Z,43.14
2019-01-19T06:43:41.875Z,43.18
2019-01-19T06:46:10.075Z,43.35
2019-01-19T06:48:37.799Z,43.28
2019-01-19T06:51:05.586Z,42.79
2019-01-19T06:53:33.427Z,42.97
2019-01-19T06:56:01.210Z,42.77
2019-01-19T06:58:28.916Z,43.34
2019-01-19T07:00:57.035Z,41.61
2019-01-19T07:03:24.835Z,42.79
2019-01-19T07:05:52.582Z,41.65
2019-01-19T07:08:20.908Z,41.67
2019-01-19T07:10:48.910Z,41.27
2019-01-19T07:13:16.639Z,40.60
2019-01-19T07:15:45.239Z,40.41
2019-01-19T07:18:13.411Z,38.74
2019-01-19T07:20:41.136Z,39.54
2019-01-19T07:23:09.188Z,38.85
2019-01-19T07:25:37.251Z,37.42
2019-01-19T07:28:04.980Z,37.57
2019-01-19T07:30:32.845Z,37.28
2019-01-19T07:33:00.939Z,36.98
2019-01-19T07:35:29.338Z,36.39
2019-01-19T07:37:57.398Z,37.16
2019-01-19T07:40:25.468Z,36.20
2019-01-19T07:43:00.384Z,36.62
2019-01-19T07:45:28.764Z,37.18
2019-01-19T07:47:56.936Z,36.87
2019-01-19T07:50:25.239Z,36.99
2019-01-19T07:52:53.482Z,37.02
2019-01-19T07:55:21.576Z,37.33
2019-01-19T07:57:49.315Z,37.64
2019-01-19T08:00:21.907Z,37.82
2019-01-19T08:02:49.795Z,38.03
2019-01-19T08:05:18.063Z,38.33
2019-01-19T08:07:46.451Z,38.48
2019-01-19T08:10:15.055Z,38.79
2019-01-19T08:12:43.429Z,38.83
2019-01-19T08:15:12.782Z,39.26
2019-01-19T08:17:40.503Z,39.33
2019-01-19T08:20:08.691Z,39.29
2019-01-19T08:22:36.713Z,39.74
2019-01-19T08:25:04.814Z,40.05
2019-01-19T08:27:33.808Z,40.19
2019-01-19T08:30:01.879Z,40.27
2019-01-19T08:32:29.868Z,40.59
2019-01-19T08:34:57.911Z,40.38
2019-01-19T08:37:25.812Z,40.39
2019-01-19T08:39:53.702Z,40.37
2019-01-19T08:42:21.698Z,40.43
2019-01-19T08:44:49.889Z,40.35
2019-01-19T08:47:18.339Z,40.39
2019-01-19T08:49:46.622Z,40.45
2019-01-19T08:52:14.407Z,40.49
2019-01-19T08:54:42.463Z,40.56
2019-01-19T08:57:10.182Z,40.59
2019-01-19T08:59:38.291Z,41.11
2019-01-19T09:02:11.442Z,42.14
2019-01-19T09:04:39.274Z,39.90
2019-01-19T09:07:08.550Z,38.14
2019-01-19T09:09:36.878Z,38.32
2019-01-19T09:12:04.649Z,37.33
2019-01-19T09:14:32.924Z,37.18
2019-01-19T09:17:01.781Z,37.23
2019-01-19T09:19:29.936Z,37.28
2019-01-19T09:22:02.058Z,38.12
2019-01-19T09:24:32.580Z,37.21
2019-01-19T09:30:14.278Z,36.80
2019-01-19T09:32:42.452Z,37.09
2019-01-19T09:35:10.198Z,36.31
2019-01-19T09:38:11.467Z,36.76
2019-01-19T09:40:41.380Z,36.76
2019-01-19T09:43:09.371Z,37.03
2019-01-19T09:45:49.520Z,37.25
2019-01-19T09:48:18.130Z,37.08
2019-01-19T09:50:46.253Z,37.18
2019-01-19T09:53:13.962Z,37.24
2019-01-19T09:55:41.682Z,37.25
2019-01-19T09:58:09.431Z,37.45
2019-01-19T10:00:37.888Z,37.11
2019-01-19T10:03:07.179Z,37.37
2019-01-19T10:05:35.150Z,37.14
2019-01-19T10:08:03.167Z,37.39
2019-01-19T10:10:31.489Z,37.38
2019-01-19T10:12:59.516Z,37.33
2019-01-19T10:15:28.054Z,37.49
2019-01-19T10:17:56.768Z,37.36
2019-01-19T10:20:25.156Z,36.89
2019-01-19T10:22:52.911Z,37.09
2019-01-19T10:25:21.516Z,37.27
2019-01-19T10:27:49.482Z,37.43
2019-01-19T10:30:18.999Z,37.50
2019-01-19T10:32:46.707Z,36.20
2019-01-19T10:35:14.513Z,38.61
2019-01-19T10:37:42.712Z,36.72
2019-01-19T10:40:11.279Z,36.81
2019-01-19T10:42:39.024Z,36.75
2019-01-19T10:45:07.885Z,35.98
2019-01-19T10:47:36.362Z,37.46
2019-01-19T10:50:05.718Z,36.59
2019-01-19T10:52:33.751Z,36.89
2019-01-19T10:55:02.875Z,36.45
2019-01-19T10:57:31.390Z,36.72
2019-01-19T10:59:59.709Z,36.38
2019-01-19T11:02:27.579Z,36.22
2019-01-19T11:04:55.911Z,36.75
2019-01-19T11:07:24.092Z,36.62
2019-01-19T11:09:52.166Z,37.09
2019-01-19T11:12:19.895Z,35.73
2019-01-19T11:14:47.882Z,35.94
2019-01-19T11:17:15.676Z,35.58
2019-01-19T11:19:43.710Z,35.47
2019-01-19T11:22:11.591Z,35.86
2019-01-19T11:24:39.964Z,35.67
2019-01-19T11:27:08.040Z,35.98
2019-01-19T11:29:35.777Z,35.66
2019-01-19T11:32:03.771Z,35.92
2019-01-19T11:34:31.514Z,35.42
2019-01-19T11:36:59.487Z,35.75
2019-01-19T11:39:27.209Z,36.51
2019-01-19T11:41:55.839Z,37.00
2019-01-19T11:44:23.815Z,38.19
2019-01-19T11:46:51.923Z,38.14
2019-01-19T11:49:19.879Z,38.48
2019-01-19T11:51:48.099Z,38.83
2019-01-19T11:54:16.231Z,38.90
2019-01-19T11:56:44.408Z,38.81
2019-01-19T11:59:12.151Z,38.87
2019-01-19T12:01:40.111Z,39.00
2019-01-19T12:04:08.222Z,39.77
2019-01-19T12:06:36.582Z,39.03
2019-01-19T12:09:06.726Z,38.24
2019-01-19T12:11:34.903Z,38.01
2019-01-19T12:14:02.660Z,37.48
2019-01-19T12:16:30.994Z,37.61
2019-01-19T12:18:58.786Z,37.44
2019-01-19T12:21:26.999Z,37.01
2019-01-19T12:23:55.316Z,36.91
2019-01-19T12:26:23.599Z,37.02
2019-01-19T12:28:51.702Z,36.92
2019-01-19T12:31:19.755Z,36.95
2019-01-19T12:33:48.431Z,37.12
2019-01-19T12:36:16.419Z,37.69
2019-01-19T12:38:44.207Z,38.85
2019-01-19T12:41:12.237Z,38.92
2019-01-19T12:43:40.495Z,39.96
2019-01-19T12:46:09.352Z,39.17
2019-01-19T12:48:37.546Z,39.19
2019-01-19T12:51:06.732Z,39.14
2019-01-19T12:53:34.560Z,39.11
2019-01-19T12:56:02.636Z,39.26
2019-01-19T12:58:30.784Z,39.18
2019-01-19T13:00:59.027Z,39.30
2019-01-19T13:03:27.232Z,39.39
2019-01-19T13:06:26.267Z,39.43
2019-01-19T13:08:54.332Z,39.54
2019-01-19T13:11:41.079Z,38.92
2019-01-19T13:14:08.846Z,39.57
2019-01-19T13:16:59.168Z,39.51
2019-01-19T13:19:32.690Z,39.49
2019-01-19T13:22:19.103Z,39.65
2019-01-19T13:24:59.183Z,39.61
2019-01-19T13:27:52.378Z,39.62
2019-01-19T13:30:39.413Z,39.56
2019-01-19T13:33:26.682Z,39.74
2019-01-19T13:36:19.995Z,39.70
2019-01-19T13:38:57.842Z,39.65
2019-01-19T13:41:43.543Z,39.74
2019-01-19T13:44:23.939Z,39.80
2019-01-19T13:47:13.975Z,39.94
2019-01-19T13:50:01.670Z,39.97
2019-01-19T13:52:55.494Z,39.89
2019-01-19T13:55:29.679Z,39.91
2019-01-19T13:58:18.347Z,39.93
2019-01-19T14:01:20.432Z,40.04
2019-01-19T14:03:53.756Z,40.05
2019-01-19T14:06:39.471Z,40.13
2019-01-19T14:09:25.481Z,40.00
2019-01-19T14:12:04.439Z,40.11
2019-01-19T14:14:48.335Z,40.21
2019-01-19T14:17:34.218Z,40.03
2019-01-19T14:20:27.916Z,40.15
2019-01-19T14:23:18.086Z,40.01
2019-01-19T14:26:05.843Z,40.09
2019-01-19T14:28:52.583Z,40.13
2019-01-19T14:31:55.096Z,40.17
2019-01-19T14:34:51.118Z,40.12
2019-01-19T14:37:26.658Z,40.14
2019-01-19T14:39:57.158Z,40.16
2019-01-19T14:42:58.152Z,40.11
2019-01-19T14:45:40.455Z,40.20
2019-01-19T14:48:27.023Z,40.15
2019-01-19T14:51:16.212Z,40.03
2019-01-19T14:54:03.355Z,40.10
2019-01-19T14:56:59.271Z,40.08
2019-01-19T14:59:31.959Z,40.20
2019-01-19T15:02:19.086Z,40.17
2019-01-19T15:04:52.294Z,40.13
2019-01-19T15:07:29.470Z,40.61
2019-01-19T15:10:32.364Z,40.12
2019-01-19T15:13:17.622Z,40.20
2019-01-19T15:15:58.548Z,40.14
2019-01-19T15:18:32.245Z,39.90
2019-01-19T15:21:19.374Z,39.93
2019-01-19T15:23:59.983Z,40.08
2019-01-19T15:26:46.795Z,40.49
2019-01-19T15:29:27.995Z,40.53
2019-01-19T15:32:18.487Z,40.62
2019-01-19T15:35:14.925Z,40.70
2019-01-19T15:38:02.237Z,40.25
2019-01-19T15:40:47.869Z,38.99
2019-01-19T15:43:34.473Z,39.82
2019-01-19T15:46:13.133Z,38.73
2019-01-19T15:49:18.863Z,38.57
2019-01-19T15:52:05.233Z,38.82
2019-01-19T15:55:02.028Z,39.28
2019-01-19T15:57:32.911Z,39.08
2019-01-19T16:00:39.159Z,38.27
2019-01-19T16:03:27.361Z,38.54
2019-01-19T16:06:14.826Z,38.18
2019-01-19T16:09:05.222Z,36.60
2019-01-19T16:11:44.112Z,37.36
2019-01-19T16:14:34.395Z,38.18
2019-01-19T16:17:15.623Z,38.51
2019-01-19T16:20:09.291Z,38.56
2019-01-19T16:22:59.385Z,37.78
2019-01-19T16:25:35.498Z,38.30
2019-01-19T16:28:32.383Z,38.92
2019-01-19T16:31:11.723Z,38.04
2019-01-19T16:33:49.334Z,38.46
2019-01-19T16:36:48.931Z,38.77
2019-01-19T16:39:34.515Z,38.35
2019-01-19T16:42:39.870Z,38.16
2019-01-19T16:45:25.707Z,37.75
2019-01-19T16:48:13.823Z,37.52
2019-01-19T16:51:10.203Z,37.74
2019-01-19T16:53:55.079Z,37.53
2019-01-19T16:56:45.268Z,37.38
2019-01-19T16:59:35.910Z,37.97
2019-01-19T17:02:30.755Z,37.47
2019-01-19T17:05:03.687Z,37.73
2019-01-19T17:07:53.643Z,37.75
2019-01-19T17:10:44.172Z,37.83
2019-01-19T17:13:47.045Z,38.16
2019-01-19T17:16:18.855Z,38.24
2019-01-19T17:19:12.204Z,37.94
2019-01-19T17:21:46.394Z,37.82
2019-01-19T17:24:30.965Z,38.36
2019-01-19T17:27:11.978Z,37.81
2019-01-19T17:30:01.413Z,38.18
2019-01-19T17:32:36.166Z,38.03
2019-01-19T17:35:32.730Z,38.50
2019-01-19T17:38:05.000Z,38.19
2019-01-19T17:41:04.722Z,37.92
2019-01-19T17:43:52.111Z,38.12
2019-01-19T17:46:39.123Z,37.96
2019-01-19T17:49:12.032Z,38.01
2019-01-19T17:51:53.831Z,37.54
2019-01-19T17:54:44.065Z,38.03
2019-01-19T17:57:20.263Z,37.81
2019-01-19T18:00:14.091Z,37.38
2019-01-19T18:02:54.833Z,36.87
2019-01-19T18:05:42.375Z,36.76
2019-01-19T18:08:35.234Z,37.25
2019-01-19T18:11:20.668Z,37.55
2019-01-19T18:13:53.290Z,37.81
2019-01-19T18:16:43.172Z,37.66
2019-01-19T18:19:45.690Z,37.94
2019-01-19T18:22:38.747Z,37.71
2019-01-19T18:25:20.033Z,37.46
2019-01-19T18:28:08.358Z,38.02
2019-01-19T18:30:54.575Z,38.07
2019-01-19T18:33:29.796Z,37.90
2019-01-19T18:36:16.575Z,38.00
2019-01-19T18:38:49.651Z,38.11
2019-01-19T18:41:22.051Z,38.06
2019-01-19T18:44:12.555Z,37.91
2019-01-19T18:47:12.315Z,37.97
2019-01-19T18:49:58.340Z,37.88
2019-01-19T18:52:37.733Z,37.65
2019-01-19T18:55:15.957Z,36.65
2019-01-19T18:58:02.776Z,36.78
2019-01-19T19:00:47.814Z,37.55
2019-01-19T19:03:37.935Z,36.53
2019-01-19T19:06:09.875Z,36.52
2019-01-19T19:09:00.214Z,36.70
2019-01-19T19:11:47.866Z,36.92
2019-01-19T19:14:34.291Z,37.83
2019-01-19T19:17:27.693Z,38.38
2019-01-19T19:19:58.850Z,38.23
2019-01-19T19:22:52.106Z,38.03
2019-01-19T19:25:27.846Z,38.61
2019-01-19T19:28:20.940Z,38.62
2019-01-19T19:30:54.886Z,38.86
2019-01-19T19:33:29.451Z,38.82
2019-01-19T19:36:16.762Z,38.86
2019-01-19T19:38:58.179Z,38.41
2019-01-19T19:41:43.964Z,38.31
2019-01-19T19:44:49.038Z,38.79
2019-01-19T19:47:34.947Z,39.69
2019-01-19T19:50:27.883Z,39.45
2019-01-19T19:52:55.856Z,38.24
2019-01-19T19:55:23.265Z,39.65
2019-01-19T19:57:51.102Z,38.87
2019-01-19T20:00:19.408Z,39.19
2019-01-19T20:02:47.862Z,39.14
2019-01-19T20:05:16.151Z,38.87
2019-01-19T20:07:44.273Z,38.50
2019-01-19T20:10:17.012Z,38.61
2019-01-19T20:12:42.015Z,38.72
2019-01-19T20:15:09.726Z,38.39
2019-01-19T20:17:37.675Z,38.79
2019-01-19T20:20:06.730Z,38.77
2019-01-19T20:22:34.763Z,39.58
2019-01-19T20:25:02.992Z,39.26
2019-01-19T20:27:31.111Z,38.95
2019-01-19T20:29:58.914Z,38.80
2019-01-19T20:32:27.000Z,39.09
2019-01-19T20:34:55.752Z,39.23
2019-01-19T20:37:24.471Z,39.41
2019-01-19T20:39:52.442Z,39.49
2019-01-19T20:42:20.222Z,39.61
2019-01-19T20:44:48.399Z,39.03
2019-01-19T20:47:16.189Z,38.87
2019-01-19T20:49:44.430Z,39.75
2019-01-19T20:52:12.703Z,39.85
2019-01-19T20:54:40.484Z,40.20
2019-01-19T20:57:08.279Z,40.26
2019-01-19T20:59:36.303Z,40.39
2019-01-19T21:02:04.355Z,40.00
2019-01-19T21:04:32.443Z,39.18
2019-01-19T21:07:00.615Z,39.82
2019-01-19T21:09:28.999Z,39.49
2019-01-19T21:11:57.048Z,39.97
2019-01-19T21:14:25.426Z,39.10
2019-01-19T21:16:53.509Z,39.09
2019-01-19T21:19:21.590Z,38.92
2019-01-19T21:21:50.369Z,38.81
2019-01-19T21:24:18.213Z,38.68
2019-01-19T21:26:45.934Z,39.90
2019-01-19T21:29:14.479Z,40.03
2019-01-19T21:31:42.199Z,39.25
2019-01-19T21:34:10.240Z,39.66
2019-01-19T21:36:38.698Z,40.18
2019-01-19T21:39:07.650Z,40.27
2019-01-19T21:41:35.767Z,40.61
2019-01-19T21:44:05.030Z,40.60
2019-01-19T21:46:33.080Z,40.78
2019-01-19T21:49:01.240Z,39.87
2019-01-19T21:51:29.031Z,41.05
2019-01-19T21:53:56.995Z,40.46
2019-01-19T21:56:25.022Z,40.31
2019-01-19T21:58:53.243Z,40.16
2019-01-19T22:01:21.776Z,40.21
2019-01-19T22:03:49.971Z,40.00
2019-01-19T22:06:18.197Z,40.00
2019-01-19T22:08:45.990Z,40.19
2019-01-19T22:11:14.075Z,42.17
2019-01-19T22:13:42.075Z,42.70
2019-01-19T22:16:10.155Z,42.66
2019-01-19T22:18:38.124Z,42.87
2019-01-19T22:21:06.086Z,40.91
2019-01-19T22:23:34.299Z,42.70
2019-01-19T22:26:02.035Z,42.70
2019-01-19T22:28:30.463Z,42.80
2019-01-19T22:30:58.919Z,42.22
2019-01-19T22:33:27.551Z,40.95
2019-01-19T22:35:55.804Z,41.40
2019-01-19T22:38:24.419Z,42.41
2019-01-19T22:40:53.751Z,42.78
2019-01-19T22:43:25.080Z,42.62
2019-01-19T22:45:53.315Z,42.53
2019-01-19T22:48:21.547Z,42.32
2019-01-19T22:50:49.494Z,42.21
2019-01-19T22:53:17.783Z,42.03
2019-01-19T22:55:45.511Z,41.91
2019-01-19T22:58:13.230Z,41.95
2019-01-19T23:01:00.681Z,41.75
2019-01-19T23:03:29.830Z,41.76
2019-01-19T23:05:58.740Z,41.67
2019-01-19T23:08:26.494Z,41.75
2019-01-19T23:11:01.152Z,41.73
2019-01-19T23:13:24.787Z,41.82
2019-01-19T23:15:53.315Z,41.64
2019-01-19T23:18:21.293Z,41.74
2019-01-19T23:20:49.299Z,41.55
2019-01-19T23:23:17.280Z,41.50
2019-01-19T23:25:45.222Z,41.38
2019-01-19T23:28:13.422Z,41.37
2019-01-19T23:30:42.002Z,41.35
2019-01-19T23:33:10.120Z,41.30
2019-01-19T23:35:38.156Z,41.29
2019-01-19T23:38:05.999Z,41.29
2019-01-19T23:40:33.987Z,41.34
2019-01-19T23:43:01.777Z,41.33
2019-01-19T23:45:29.509Z,41.32
2019-01-19T23:47:57.595Z,41.38
2019-01-19T23:50:25.627Z,41.40
2019-01-19T23:52:53.718Z,41.35
2019-01-19T23:55:21.995Z,41.25
2019-01-19T23:57:49.714Z,41.29
